Time;durP1;ratioP1;P1;durP2;ratioP2;P2;SDS_P1;SDS_P2;PMS_P1;PMS_P2;Temp;Humidity;BMP_temperature;BMP_pressure;BME280_temperature;BME280_humidity;BME280_pressure;Samples;Min_cycle;Max_cycle;Signal;HPM_P1;HPM_P2
2023/04/01 00:01:05;;;;;;;30.55;3.47;;;;;;;;;;5043648;28;20017;-73
2023/04/01 00:03:32;;;;;;;6.97;2.80;;;;;;;;;;5037467;28;20606;-73
2023/04/01 00:05:59;;;;;;;9.40;2.72;;;;;;;;;;5042108;28;20512;-73
2023/04/01 00:08:26;;;;;;;7.18;2.00;;;;;;;;;;5038140;28;20034;-73
2023/04/01 00:10:52;;;;;;;6.45;2.60;;;;;;;;;;5045192;28;20025;-74
2023/04/01 00:13:19;;;;;;;8.95;2.80;;;;;;;;;;5042136;28;20037;-72
2023/04/01 00:15:45;;;;;;;10.68;3.20;;;;;;;;;;5043913;28;20013;-73
2023/04/01 00:18:11;;;;;;;8.40;3.40;;;;;;;;;;5041888;28;20060;-73
2023/04/01 00:20:37;;;;;;;9.02;2.75;;;;;;;;;;5044182;28;20033;-73
2023/04/01 00:23:05;;;;;;;11.45;3.72;;;;;;;;;;5038345;28;20025;-74
2023/04/01 00:25:31;;;;;;;7.03;2.60;;;;;;;;;;5043911;28;20096;-73
2023/04/01 00:27:57;;;;;;;11.10;3.08;;;;;;;;;;5039968;28;20025;-73
2023/04/01 00:30:24;;;;;;;15.25;3.38;;;;;;;;;;5039982;28;20017;-73
2023/04/01 00:32:53;;;;;;;6.05;2.63;;;;;;;;;;5044876;28;20108;-73
2023/04/01 00:35:19;;;;;;;7.93;2.88;;;;;;;;;;5039966;28;20052;-72
2023/04/01 00:37:47;;;;;;;14.63;3.92;;;;;;;;;;5038052;28;20033;-73
2023/04/01 00:40:27;;;;;;;15.23;3.63;;;;;;;;;;5039917;28;20036;-73
2023/04/01 00:42:53;;;;;;;13.68;4.13;;;;;;;;;;5039642;28;20146;-73
2023/04/01 00:45:28;;;;;;;12.90;4.57;;;;;;;;;;5039544;28;20489;-73
2023/04/01 00:47:55;;;;;;;11.00;3.20;;;;;;;;;;5040138;28;20033;-72
2023/04/01 00:50:23;;;;;;;10.93;3.72;;;;;;;;;;5044969;28;20066;-73
2023/04/01 00:52:49;;;;;;;9.38;3.60;;;;;;;;;;5040505;28;20017;-72
2023/04/01 00:55:17;;;;;;;11.30;3.97;;;;;;;;;;5037656;28;20265;-74
2023/04/01 00:57:45;;;;;;;10.73;3.50;;;;;;;;;;5041232;28;20037;-73
2023/04/01 01:00:13;;;;;;;11.23;3.45;;;;;;;;;;5040255;28;20040;-73
2023/04/01 01:02:41;;;;;;;11.55;3.63;;;;;;;;;;5041040;28;20029;-73
2023/04/01 01:05:08;;;;;;;8.27;3.25;;;;;;;;;;5036975;28;20079;-73
2023/04/01 01:07:34;;;;;;;12.45;4.07;;;;;;;;;;5038948;28;20065;-73
2023/04/01 01:10:09;;;;;;;12.90;3.72;;;;;;;;;;5039223;28;20075;-74
2023/04/01 01:12:41;;;;;;;13.73;3.60;;;;;;;;;;5034348;28;20083;-73
2023/04/01 01:15:21;;;;;;;8.45;3.25;;;;;;;;;;5038366;28;20033;-73
2023/04/01 01:18:06;;;;;;;11.55;3.70;;;;;;;;;;5034133;28;20087;-73
2023/04/01 01:20:32;;;;;;;12.65;4.05;;;;;;;;;;5041573;28;20024;-73
2023/04/01 01:23:17;;;;;;;9.88;3.58;;;;;;;;;;5042779;28;20025;-73
2023/04/01 01:25:52;;;;;;;12.27;4.20;;;;;;;;;;5041934;28;20028;-74
2023/04/01 01:28:41;;;;;;;12.82;3.38;;;;;;;;;;5037900;28;20030;-74
2023/04/01 01:31:23;;;;;;;10.80;4.03;;;;;;;;;;5037996;28;20037;-73
2023/04/01 01:33:54;;;;;;;10.15;3.83;;;;;;;;;;5043378;28;20463;-73
2023/04/01 01:36:21;;;;;;;11.10;3.70;;;;;;;;;;5039565;28;20031;-73
2023/04/01 01:38:49;;;;;;;9.68;3.80;;;;;;;;;;5040570;28;20543;-73
2023/04/01 01:41:16;;;;;;;10.07;4.07;;;;;;;;;;5038724;28;20480;-73
2023/04/01 01:43:47;;;;;;;11.52;4.47;;;;;;;;;;5040180;28;20035;-73
2023/04/01 01:46:15;;;;;;;17.58;4.88;;;;;;;;;;5039467;28;20035;-74
2023/04/01 01:48:43;;;;;;;11.65;3.95;;;;;;;;;;5041200;28;20111;-73
2023/04/01 01:51:09;;;;;;;8.07;3.75;;;;;;;;;;5037949;28;20485;-73
2023/04/01 01:53:35;;;;;;;9.70;3.90;;;;;;;;;;5040070;28;20033;-73
2023/04/01 01:56:02;;;;;;;7.82;3.85;;;;;;;;;;5042295;28;20028;-72
2023/04/01 01:58:34;;;;;;;9.15;4.60;;;;;;;;;;5037858;28;20029;-73
2023/04/01 02:01:02;;;;;;;13.65;4.13;;;;;;;;;;5038815;28;20035;-73
2023/04/01 02:03:30;;;;;;;10.10;4.00;;;;;;;;;;5032355;28;20505;-73
2023/04/01 02:05:57;;;;;;;13.93;4.78;;;;;;;;;;5035356;28;20013;-73
2023/04/01 02:08:28;;;;;;;9.45;3.53;;;;;;;;;;5040186;28;20103;-73
2023/04/01 02:10:57;;;;;;;8.55;3.70;;;;;;;;;;5042232;28;20021;-73
2023/04/01 02:13:28;;;;;;;9.93;3.97;;;;;;;;;;5030698;28;20032;-73
2023/04/01 02:15:56;;;;;;;12.50;4.00;;;;;;;;;;5039479;28;20032;-73
2023/04/01 02:18:22;;;;;;;13.80;4.10;;;;;;;;;;5037987;28;20155;-73
2023/04/01 02:20:49;;;;;;;12.95;4.70;;;;;;;;;;5039004;28;20155;-73
2023/04/01 02:23:16;;;;;;;13.45;4.43;;;;;;;;;;5036482;28;20067;-73
2023/04/01 02:25:43;;;;;;;7.65;4.40;;;;;;;;;;5037114;28;20033;-72
2023/04/01 02:28:11;;;;;;;9.35;4.35;;;;;;;;;;5037193;28;20056;-73
2023/04/01 02:30:39;;;;;;;9.52;4.30;;;;;;;;;;5037853;28;20116;-73
2023/04/01 02:33:06;;;;;;;11.52;4.22;;;;;;;;;;5035793;28;20033;-74
2023/04/01 02:35:34;;;;;;;8.55;4.30;;;;;;;;;;5040788;28;20083;-76
2023/04/01 02:38:00;;;;;;;9.98;4.53;;;;;;;;;;5032658;28;20040;-74
2023/04/01 02:40:27;;;;;;;12.43;4.65;;;;;;;;;;5034737;28;20262;-73
2023/04/01 02:42:53;;;;;;;11.40;5.05;;;;;;;;;;5037811;28;20101;-74
2023/04/01 02:45:19;;;;;;;9.82;4.80;;;;;;;;;;5040105;28;20058;-73
2023/04/01 02:47:45;;;;;;;8.77;4.60;;;;;;;;;;5039649;28;20017;-74
2023/04/01 02:50:11;;;;;;;10.30;4.50;;;;;;;;;;5036382;28;20036;-73
2023/04/01 02:52:38;;;;;;;8.88;3.90;;;;;;;;;;5040570;28;20023;-73
2023/04/01 02:55:05;;;;;;;9.57;4.35;;;;;;;;;;5035675;28;20021;-74
2023/04/01 02:57:31;;;;;;;12.15;4.93;;;;;;;;;;5043781;28;20033;-73
2023/04/01 02:59:57;;;;;;;10.55;4.88;;;;;;;;;;5044919;28;20029;-73
2023/04/01 03:02:23;;;;;;;9.00;4.50;;;;;;;;;;5043814;28;20021;-74
2023/04/01 03:04:49;;;;;;;9.45;5.03;;;;;;;;;;5037635;28;20022;-73
2023/04/01 03:07:16;;;;;;;11.23;4.70;;;;;;;;;;5042876;28;20413;-74
2023/04/01 03:09:42;;;;;;;10.43;4.47;;;;;;;;;;5041300;28;20676;-73
2023/04/01 03:12:08;;;;;;;10.05;4.82;;;;;;;;;;5038073;28;20045;-73
2023/04/01 03:14:34;;;;;;;10.35;5.03;;;;;;;;;;5041108;28;20025;-73
2023/04/01 03:17:00;;;;;;;9.30;4.75;;;;;;;;;;5046595;28;20735;-73
2023/04/01 03:19:26;;;;;;;10.55;5.53;;;;;;;;;;5040012;28;20040;-72
2023/04/01 03:21:53;;;;;;;13.07;5.45;;;;;;;;;;5041751;28;20024;-74
2023/04/01 03:24:19;;;;;;;9.30;4.65;;;;;;;;;;5042189;28;20380;-73
2023/04/01 03:26:45;;;;;;;7.90;4.68;;;;;;;;;;5040235;28;20059;-73
2023/04/01 03:29:11;;;;;;;11.05;5.35;;;;;;;;;;5033968;28;20025;-74
2023/04/01 03:31:37;;;;;;;13.70;4.60;;;;;;;;;;5037884;28;20044;-74
2023/04/01 03:34:04;;;;;;;11.63;4.50;;;;;;;;;;5040337;28;20029;-73
2023/04/01 03:36:30;;;;;;;10.25;5.00;;;;;;;;;;5042971;28;20064;-73
2023/04/01 03:38:56;;;;;;;11.63;5.10;;;;;;;;;;5042984;28;20516;-74
2023/04/01 03:41:22;;;;;;;11.30;4.97;;;;;;;;;;5038715;28;20468;-74
2023/04/01 03:43:48;;;;;;;10.85;4.53;;;;;;;;;;5038010;28;20044;-73
2023/04/01 03:46:21;;;;;;;11.18;4.78;;;;;;;;;;5041738;28;20029;-73
2023/04/01 03:48:47;;;;;;;11.23;5.38;;;;;;;;;;5047054;28;20029;-75
2023/04/01 03:51:13;;;;;;;12.52;5.00;;;;;;;;;;5044905;28;20062;-74
2023/04/01 03:53:39;;;;;;;15.10;5.60;;;;;;;;;;5045762;28;20086;-74
2023/04/01 03:56:06;;;;;;;10.32;4.78;;;;;;;;;;5044308;28;20028;-73
2023/04/01 03:58:32;;;;;;;10.20;5.07;;;;;;;;;;5048844;28;20044;-73
2023/04/01 04:00:58;;;;;;;11.02;5.07;;;;;;;;;;5052023;28;20501;-74
2023/04/01 04:03:25;;;;;;;11.95;6.00;;;;;;;;;;5049412;28;20075;-74
2023/04/01 04:05:52;;;;;;;8.93;4.93;;;;;;;;;;5043223;28;20017;-74
2023/04/01 04:08:18;;;;;;;11.88;5.80;;;;;;;;;;5044771;28;20025;-74
2023/04/01 04:10:46;;;;;;;12.32;6.05;;;;;;;;;;5040784;28;20377;-75
2023/04/01 04:13:12;;;;;;;12.15;5.43;;;;;;;;;;5040177;28;20012;-75
2023/04/01 04:15:39;;;;;;;11.38;6.13;;;;;;;;;;5045490;28;20035;-74
2023/04/01 04:18:05;;;;;;;11.70;5.88;;;;;;;;;;5039881;28;20059;-75
2023/04/01 04:20:31;;;;;;;15.18;6.15;;;;;;;;;;5042257;28;20020;-74
2023/04/01 04:22:57;;;;;;;15.35;5.65;;;;;;;;;;5037493;28;20029;-74
2023/04/01 04:25:23;;;;;;;11.40;5.80;;;;;;;;;;5037679;28;20215;-75
2023/04/01 04:27:49;;;;;;;15.38;6.60;;;;;;;;;;5039946;28;20507;-74
2023/04/01 04:30:17;;;;;;;9.73;5.90;;;;;;;;;;5036992;28;20158;-75
2023/04/01 04:32:43;;;;;;;11.70;5.75;;;;;;;;;;5036458;28;20167;-74
2023/04/01 04:35:09;;;;;;;13.80;6.20;;;;;;;;;;5048309;28;20039;-74
2023/04/01 04:37:35;;;;;;;13.05;6.00;;;;;;;;;;5036363;28;20102;-75
2023/04/01 04:40:02;;;;;;;16.50;5.78;;;;;;;;;;5041793;28;20018;-74
2023/04/01 04:42:28;;;;;;;14.85;5.93;;;;;;;;;;5038450;28;20055;-74
2023/04/01 04:44:54;;;;;;;12.45;5.25;;;;;;;;;;5045438;28;20140;-74
2023/04/01 04:47:20;;;;;;;13.85;6.25;;;;;;;;;;5038868;28;20594;-74
2023/04/01 04:49:46;;;;;;;14.82;6.32;;;;;;;;;;5041466;28;20029;-73
2023/04/01 04:52:12;;;;;;;12.40;6.65;;;;;;;;;;5042279;28;20025;-74
2023/04/01 04:54:38;;;;;;;16.17;6.28;;;;;;;;;;5042512;28;20025;-74
2023/04/01 04:57:05;;;;;;;15.65;5.35;;;;;;;;;;5042043;28;20083;-74
2023/04/01 04:59:31;;;;;;;12.77;5.90;;;;;;;;;;5039296;28;20025;-74
2023/04/01 05:01:57;;;;;;;12.45;6.25;;;;;;;;;;5041826;28;20369;-73
2023/04/01 05:04:24;;;;;;;11.82;5.50;;;;;;;;;;5038955;28;20025;-73
2023/04/01 05:06:51;;;;;;;17.15;6.10;;;;;;;;;;5044006;28;20466;-74
2023/04/01 05:09:17;;;;;;;10.05;5.68;;;;;;;;;;5038031;28;20504;-73
2023/04/01 05:11:43;;;;;;;14.07;5.65;;;;;;;;;;5038944;28;20166;-73
2023/04/01 05:14:14;;;;;;;10.43;5.45;;;;;;;;;;5037455;28;20036;-73
2023/04/01 05:16:40;;;;;;;13.02;5.47;;;;;;;;;;5040730;28;20045;-76
2023/04/01 05:19:06;;;;;;;12.93;5.80;;;;;;;;;;5040153;28;20143;-73
2023/04/01 05:21:35;;;;;;;11.60;6.57;;;;;;;;;;5038022;28;20123;-74
2023/04/01 05:24:01;;;;;;;12.25;5.75;;;;;;;;;;5038890;28;20570;-74
2023/04/01 05:26:27;;;;;;;13.65;6.13;;;;;;;;;;5039053;28;20021;-75
2023/04/01 05:28:53;;;;;;;9.35;5.25;;;;;;;;;;5034445;28;20384;-75
2023/04/01 05:31:19;;;;;;;13.00;6.32;;;;;;;;;;5038304;28;20114;-75
2023/04/01 05:33:46;;;;;;;9.85;5.55;;;;;;;;;;5039170;28;20059;-75
2023/04/01 05:36:13;;;;;;;9.73;5.97;;;;;;;;;;5036986;28;20083;-75
2023/04/01 05:38:40;;;;;;;11.68;5.53;;;;;;;;;;5037319;28;20033;-74
2023/04/01 05:41:06;;;;;;;10.02;5.43;;;;;;;;;;5039419;28;20424;-74
2023/04/01 05:43:32;;;;;;;9.68;6.55;;;;;;;;;;5037635;28;20063;-74
2023/04/01 05:45:58;;;;;;;11.77;6.18;;;;;;;;;;5042239;28;20091;-74
2023/04/01 05:48:25;;;;;;;11.95;6.22;;;;;;;;;;5038404;28;20074;-74
2023/04/01 05:50:51;;;;;;;11.20;5.55;;;;;;;;;;5045372;28;20027;-73
2023/04/01 05:53:17;;;;;;;8.52;5.78;;;;;;;;;;5035253;28;20604;-73
2023/04/01 05:55:43;;;;;;;14.20;6.90;;;;;;;;;;5039648;28;20664;-73
2023/04/01 05:58:09;;;;;;;11.43;5.72;;;;;;;;;;5037141;28;20051;-73
2023/04/01 06:00:35;;;;;;;14.10;6.05;;;;;;;;;;5041412;28;20036;-74
2023/04/01 06:03:02;;;;;;;11.05;5.47;;;;;;;;;;5032058;28;20488;-74
2023/04/01 06:05:39;;;;;;;9.07;5.07;;;;;;;;;;5039054;28;20416;-75
2023/04/01 06:08:17;;;;;;;8.77;5.30;;;;;;;;;;5039206;28;20033;-75
2023/04/01 06:10:56;;;;;;;8.60;5.70;;;;;;;;;;5043796;28;20063;-74
2023/04/01 06:13:38;;;;;;;9.25;4.93;;;;;;;;;;5041672;28;20017;-74
2023/04/01 06:16:25;;;;;;;7.15;4.97;;;;;;;;;;5039416;28;20028;-76
2023/04/01 06:18:58;;;;;;;11.60;5.13;;;;;;;;;;5044517;28;20063;-75
2023/04/01 06:21:32;;;;;;;9.40;4.20;;;;;;;;;;5044153;28;20039;-75
2023/04/01 06:24:14;;;;;;;12.65;4.50;;;;;;;;;;5048072;28;20021;-75
2023/04/01 06:26:47;;;;;;;8.80;4.30;;;;;;;;;;5044638;28;20028;-74
2023/04/01 06:29:13;;;;;;;9.65;4.50;;;;;;;;;;5046481;28;20452;-75
2023/04/01 06:31:46;;;;;;;7.38;4.65;;;;;;;;;;5041479;28;20035;-75
2023/04/01 06:34:21;;;;;;;9.30;5.00;;;;;;;;;;5046882;28;20095;-75
2023/04/01 06:36:54;;;;;;;9.48;4.70;;;;;;;;;;5039373;28;20029;-75
2023/04/01 06:39:40;;;;;;;7.72;4.50;;;;;;;;;;5045592;28;20474;-75
2023/04/01 06:42:12;;;;;;;8.35;4.93;;;;;;;;;;5040517;28;20534;-75
2023/04/01 06:44:42;;;;;;;6.70;4.32;;;;;;;;;;5042995;28;20017;-74
2023/04/01 06:47:31;;;;;;;8.30;4.30;;;;;;;;;;5040777;28;20034;-75
2023/04/01 06:50:20;;;;;;;10.30;5.05;;;;;;;;;;5039338;28;20029;-75
2023/04/01 06:53:00;;;;;;;8.35;4.50;;;;;;;;;;5041980;28;20025;-75
2023/04/01 06:55:42;;;;;;;10.43;4.80;;;;;;;;;;5044670;28;20029;-75
2023/04/01 06:58:19;;;;;;;10.70;4.72;;;;;;;;;;5038395;28;20044;-75
2023/04/01 07:00:47;;;;;;;9.63;4.70;;;;;;;;;;5043489;28;20029;-75
2023/04/01 07:03:22;;;;;;;8.38;4.50;;;;;;;;;;5043480;28;20029;-74
2023/04/01 07:05:48;;;;;;;5.93;4.35;;;;;;;;;;5040277;28;20481;-75
2023/04/01 07:08:18;;;;;;;7.32;4.40;;;;;;;;;;5040635;28;20052;-75
2023/04/01 07:10:44;;;;;;;10.65;4.70;;;;;;;;;;5043982;28;20601;-75
2023/04/01 07:13:14;;;;;;;8.38;4.47;;;;;;;;;;5045948;28;20021;-75
2023/04/01 07:15:45;;;;;;;8.80;4.20;;;;;;;;;;5041982;28;20076;-74
2023/04/01 07:18:16;;;;;;;8.05;4.15;;;;;;;;;;5038611;28;20052;-74
2023/04/01 07:20:42;;;;;;;7.93;4.35;;;;;;;;;;5042970;28;20028;-74
2023/04/01 07:23:16;;;;;;;6.28;4.15;;;;;;;;;;5043822;28;20461;-75
2023/04/01 07:25:44;;;;;;;8.57;4.15;;;;;;;;;;5044236;28;20040;-75
2023/04/01 07:28:16;;;;;;;7.00;4.32;;;;;;;;;;5042531;28;20025;-74
2023/04/01 07:30:42;;;;;;;;;;;;;;;;;;5042059;28;20652;-75
2023/04/01 07:33:15;;;;;;;10.90;4.50;;;;;;;;;;5044476;28;19905;-75
2023/04/01 07:35:52;;;;;;;6.43;4.13;;;;;;;;;;5039911;28;20009;-75
2023/04/01 07:38:36;;;;;;;11.93;4.22;;;;;;;;;;5043129;28;20485;-75
2023/04/01 07:41:21;;;;;;;8.40;4.35;;;;;;;;;;5042120;28;20035;-74
2023/04/01 07:43:54;;;;;;;7.78;4.28;;;;;;;;;;5042426;28;20491;-74
2023/04/01 07:46:30;;;;;;;8.13;4.38;;;;;;;;;;5045816;28;20025;-75
2023/04/01 07:49:02;;;;;;;12.73;4.60;;;;;;;;;;5049700;28;20071;-75
2023/04/01 07:51:40;;;;;;;7.03;4.10;;;;;;;;;;5042816;28;20595;-75
2023/04/01 07:54:07;;;;;;;6.93;4.28;;;;;;;;;;5040353;28;20025;-75
2023/04/01 07:56:41;;;;;;;9.75;4.85;;;;;;;;;;5042745;28;20086;-75
2023/04/01 07:59:28;;;;;;;8.65;4.63;;;;;;;;;;5042669;28;20028;-75
2023/04/01 08:01:57;;;;;;;8.57;4.82;;;;;;;;;;5037107;28;20021;-75
2023/04/01 08:04:42;;;;;;;7.63;4.03;;;;;;;;;;5036020;28;20033;-75
2023/04/01 08:07:44;;;;;;;7.57;4.88;;;;;;;;;;5039840;28;20029;-74
2023/04/01 08:10:19;;;;;;;11.10;5.00;;;;;;;;;;4995110;28;20026;-75
2023/04/01 08:12:45;;;;;;;9.45;5.03;;;;;;;;;;5028149;28;20036;-75
2023/04/01 08:15:14;;;;;;;9.32;4.43;;;;;;;;;;5044659;28;20033;-75
2023/04/01 08:17:52;;;;;;;6.95;4.35;;;;;;;;;;5039065;28;20053;-74
2023/04/01 08:20:24;;;;;;;7.53;4.13;;;;;;;;;;5040977;28;20025;-75
2023/04/01 08:23:09;;;;;;;10.85;4.68;;;;;;;;;;5037216;28;20017;-74
2023/04/01 08:25:38;;;;;;;7.32;4.55;;;;;;;;;;5039924;28;20025;-75
2023/04/01 08:28:12;;;;;;;6.53;4.50;;;;;;;;;;5042735;28;20079;-75
2023/04/01 08:30:44;;;;;;;7.25;4.50;;;;;;;;;;5039278;28;20029;-74
2023/04/01 08:33:11;;;;;;;6.50;4.47;;;;;;;;;;5043986;28;20056;-75
2023/04/01 08:35:47;;;;;;;8.38;4.80;;;;;;;;;;5038825;28;20026;-75
2023/04/01 08:38:16;;;;;;;7.43;4.47;;;;;;;;;;5047380;28;20521;-74
2023/04/01 08:40:52;;;;;;;7.53;4.45;;;;;;;;;;5039542;28;20021;-74
2023/04/01 08:43:37;;;;;;;10.05;4.90;;;;;;;;;;5039231;28;20029;-75
2023/04/01 08:46:03;;;;;;;8.10;4.90;;;;;;;;;;5040528;28;20451;-74
2023/04/01 08:48:48;;;;;;;11.73;4.35;;;;;;;;;;5040265;28;20025;-75
2023/04/01 08:51:34;;;;;;;9.50;4.68;;;;;;;;;;5041002;28;20040;-74
2023/04/01 08:54:12;;;;;;;6.00;4.38;;;;;;;;;;5042723;28;20516;-75
2023/04/01 08:56:52;;;;;;;10.20;4.78;;;;;;;;;;5039215;28;20025;-74
2023/04/01 08:59:21;;;;;;;9.82;5.00;;;;;;;;;;5043028;28;20032;-75
2023/04/01 09:02:07;;;;;;;7.97;4.78;;;;;;;;;;5036802;28;20025;-75
2023/04/01 09:04:52;;;;;;;8.63;5.30;;;;;;;;;;5042761;28;20029;-75
2023/04/01 09:07:29;;;;;;;8.73;4.65;;;;;;;;;;5039520;28;20028;-75
2023/04/01 09:10:13;;;;;;;8.10;4.47;;;;;;;;;;5037449;28;20028;-75
2023/04/01 09:12:47;;;;;;;7.72;4.90;;;;;;;;;;5043727;28;20029;-75
2023/04/01 09:15:33;;;;;;;7.43;4.50;;;;;;;;;;5039790;28;20028;-75
2023/04/01 09:18:02;;;;;;;9.27;4.63;;;;;;;;;;5041934;28;20496;-75
2023/04/01 09:20:31;;;;;;;8.68;5.03;;;;;;;;;;5044162;28;20461;-74
2023/04/01 09:23:17;;;;;;;13.60;5.15;;;;;;;;;;5040539;28;20021;-75
2023/04/01 09:26:02;;;;;;;8.82;4.63;;;;;;;;;;5040412;28;20029;-75
2023/04/01 09:28:38;;;;;;;11.02;5.35;;;;;;;;;;5040415;28;20108;-75
2023/04/01 09:31:07;;;;;;;9.48;5.78;;;;;;;;;;5038734;28;20078;-75
2023/04/01 09:33:39;;;;;;;9.20;5.60;;;;;;;;;;5035452;28;20563;-75
2023/04/01 09:36:08;;;;;;;8.77;5.05;;;;;;;;;;5041085;28;20570;-75
2023/04/01 09:39:10;;;;;;;7.78;4.72;;;;;;;;;;5041656;28;20037;-76
2023/04/01 09:41:40;;;;;;;9.15;5.43;;;;;;;;;;4996765;28;20026;-75
2023/04/01 09:44:21;;;;;;;10.18;5.25;;;;;;;;;;5033965;28;20407;-75
2023/04/01 09:46:50;;;;;;;10.73;6.38;;;;;;;;;;5039566;28;20025;-75
2023/04/01 09:49:23;;;;;;;10.23;5.30;;;;;;;;;;5043441;28;20559;-75
2023/04/01 09:52:04;;;;;;;14.90;5.78;;;;;;;;;;5038382;28;20021;-75
2023/04/01 09:54:33;;;;;;;10.50;5.37;;;;;;;;;;5037984;28;20025;-75
2023/04/01 09:57:08;;;;;;;8.23;5.28;;;;;;;;;;5036410;28;20104;-75
2023/04/01 09:59:34;;;;;;;10.15;5.53;;;;;;;;;;5037259;28;20069;-75
2023/04/01 10:02:19;;;;;;;9.48;5.57;;;;;;;;;;5039645;28;20352;-75
2023/04/01 10:05:05;;;;;;;8.88;5.82;;;;;;;;;;5036735;28;20036;-75
2023/04/01 10:07:31;;;;;;;8.38;5.68;;;;;;;;;;5038949;28;20174;-74
2023/04/01 10:10:16;;;;;;;10.15;6.18;;;;;;;;;;5041286;28;20078;-75
2023/04/01 10:12:51;;;;;;;9.27;5.10;;;;;;;;;;5037270;28;20043;-75
2023/04/01 10:15:30;;;;;;;9.98;5.90;;;;;;;;;;5038180;28;20057;-75
2023/04/01 10:17:56;;;;;;;9.18;5.57;;;;;;;;;;5038653;28;20053;-75
2023/04/01 10:20:37;;;;;;;11.25;5.43;;;;;;;;;;5033736;28;20489;-75
2023/04/01 10:23:19;;;;;;;11.40;6.05;;;;;;;;;;5037982;28;20067;-75
2023/04/01 10:25:57;;;;;;;11.00;5.38;;;;;;;;;;5034920;28;20589;-74
2023/04/01 10:28:42;;;;;;;10.27;5.72;;;;;;;;;;5042039;28;20440;-74
2023/04/01 10:31:23;;;;;;;11.60;6.38;;;;;;;;;;5036741;28;20029;-74
2023/04/01 10:33:52;;;;;;;10.77;5.35;;;;;;;;;;5039969;28;20044;-75
2023/04/01 10:36:28;;;;;;;10.10;5.72;;;;;;;;;;5034785;28;20029;-75
2023/04/01 10:39:08;;;;;;;14.20;6.10;;;;;;;;;;5038013;28;20046;-75
2023/04/01 10:41:37;;;;;;;9.32;5.68;;;;;;;;;;5032851;28;20126;-75
2023/04/01 10:44:36;;;;;;;10.63;5.80;;;;;;;;;;5040474;28;20136;-75
2023/04/01 10:47:08;;;;;;;9.23;5.82;;;;;;;;;;4991254;28;20465;-75
2023/04/01 10:49:34;;;;;;;;;;;;;;;;;;5046503;28;20017;-75
2023/04/01 10:52:18;;;;;;;9.55;5.07;;;;;;;;;;5039803;28;19919;-75
2023/04/01 10:55:03;;;;;;;9.57;5.85;;;;;;;;;;5035497;28;20024;-75
2023/04/01 10:57:47;;;;;;;7.82;5.47;;;;;;;;;;5045262;28;20043;-75
2023/04/01 11:00:19;;;;;;;14.40;5.90;;;;;;;;;;5037026;28;20634;-75
2023/04/01 11:03:01;;;;;;;7.75;5.80;;;;;;;;;;5041362;28;20043;-74
2023/04/01 11:05:46;;;;;;;8.57;5.65;;;;;;;;;;5041248;28;20435;-74
2023/04/01 11:08:30;;;;;;;9.65;5.25;;;;;;;;;;5043496;28;20037;-74
2023/04/01 11:10:59;;;;;;;8.68;5.63;;;;;;;;;;5038747;28;20025;-74
2023/04/01 11:13:29;;;;;;;8.43;5.63;;;;;;;;;;5042708;28;20052;-74
2023/04/01 11:16:01;;;;;;;8.40;4.90;;;;;;;;;;5040953;28;20021;-74
2023/04/01 11:18:53;;;;;;;11.68;5.60;;;;;;;;;;5045040;28;20041;-74
2023/04/01 11:21:38;;;;;;;9.48;5.47;;;;;;;;;;5029488;28;20037;-74
2023/04/01 11:24:16;;;;;;;12.07;5.60;;;;;;;;;;5040199;28;20056;-74
2023/04/01 11:26:53;;;;;;;15.07;6.50;;;;;;;;;;5042216;28;20029;-74
2023/04/01 11:29:38;;;;;;;20.15;6.97;;;;;;;;;;5039514;28;20033;-74
2023/04/01 11:32:19;;;;;;;15.93;7.38;;;;;;;;;;5040560;28;20032;-74
2023/04/01 11:35:01;;;;;;;15.43;6.65;;;;;;;;;;5036654;28;20056;-74
2023/04/01 11:37:27;;;;;;;19.88;6.53;;;;;;;;;;5041838;28;20048;-74
2023/04/01 11:40:16;;;;;;;16.33;6.22;;;;;;;;;;5042506;28;20037;-74
2023/04/01 11:42:42;;;;;;;14.35;7.05;;;;;;;;;;5033871;28;20059;-74
2023/04/01 11:45:15;;;;;;;19.10;7.32;;;;;;;;;;5042973;28;20144;-74
2023/04/01 11:47:50;;;;;;;16.75;7.28;;;;;;;;;;5038896;28;20370;-74
2023/04/01 11:50:25;;;;;;;13.50;6.65;;;;;;;;;;5042573;28;20036;-74
2023/04/01 11:52:51;;;;;;;18.15;7.05;;;;;;;;;;5046642;28;20516;-74
2023/04/01 11:55:36;;;;;;;17.95;7.32;;;;;;;;;;5045672;28;20063;-74
2023/04/01 11:58:05;;;;;;;16.00;6.00;;;;;;;;;;5036447;28;20029;-74
2023/04/01 12:00:50;;;;;;;14.45;6.38;;;;;;;;;;5039106;28;20017;-74
2023/04/01 12:03:16;;;;;;;16.70;6.72;;;;;;;;;;5042750;28;20029;-74
2023/04/01 12:05:48;;;;;;;11.07;5.63;;;;;;;;;;5041879;28;20029;-74
2023/04/01 12:08:54;;;;;;;12.88;6.25;;;;;;;;;;5044133;28;20036;-74
2023/04/01 12:11:49;;;;;;;14.20;6.65;;;;;;;;;;4984381;28;20457;-74
2023/04/01 12:14:18;;;;;;;14.02;6.25;;;;;;;;;;4992198;28;20049;-74
2023/04/01 12:16:47;;;;;;;21.67;7.30;;;;;;;;;;5024957;28;20397;-74
2023/04/01 12:19:20;;;;;;;16.50;6.55;;;;;;;;;;5042240;28;20029;-74
2023/04/01 12:21:53;;;;;;;13.25;7.28;;;;;;;;;;5038035;28;20031;-73
2023/04/01 12:24:38;;;;;;;13.02;6.00;;;;;;;;;;5039660;28;20024;-74
2023/04/01 12:27:04;;;;;;;12.98;6.25;;;;;;;;;;5045758;28;20059;-75
2023/04/01 12:29:42;;;;;;;14.43;6.72;;;;;;;;;;5042916;28;20498;-74
2023/04/01 12:32:27;;;;;;;12.70;6.43;;;;;;;;;;5034857;28;20059;-74
2023/04/01 12:34:58;;;;;;;11.40;5.43;;;;;;;;;;5035306;28;20079;-74
2023/04/01 12:37:47;;;;;;;10.00;5.27;;;;;;;;;;5040051;28;20025;-74
2023/04/01 12:40:32;;;;;;;15.18;5.90;;;;;;;;;;5038054;28;20487;-74
2023/04/01 12:43:26;;;;;;;8.48;4.97;;;;;;;;;;5041902;28;20033;-74
2023/04/01 12:46:08;;;;;;;8.95;5.65;;;;;;;;;;5037515;28;20020;-73
2023/04/01 12:48:41;;;;;;;11.70;6.45;;;;;;;;;;5039843;28;20024;-73
2023/04/01 12:51:27;;;;;;;11.07;5.32;;;;;;;;;;5040296;28;20045;-72
2023/04/01 12:53:56;;;;;;;12.45;5.53;;;;;;;;;;5041095;28;20021;-72
2023/04/01 12:56:32;;;;;;;9.18;4.93;;;;;;;;;;5043838;28;20376;-72
2023/04/01 12:59:18;;;;;;;6.57;4.55;;;;;;;;;;5039277;28;20025;-72
2023/04/01 13:02:01;;;;;;;11.32;5.40;;;;;;;;;;5022837;28;20032;-71
2023/04/01 13:04:51;;;;;;;7.97;4.80;;;;;;;;;;5036895;28;20665;-72
2023/04/01 13:07:17;;;;;;;14.55;5.70;;;;;;;;;;5037407;28;20029;-72
2023/04/01 13:09:52;;;;;;;10.43;5.68;;;;;;;;;;5037012;28;20125;-71
2023/04/01 13:12:37;;;;;;;14.27;6.20;;;;;;;;;;5040380;28;20028;-76
2023/04/01 13:15:13;;;;;;;25.35;8.82;;;;;;;;;;5040768;28;20033;-70
2023/04/01 13:17:54;;;;;;;29.77;9.30;;;;;;;;;;5036901;28;20056;-71
2023/04/01 13:20:43;;;;;;;15.07;7.95;;;;;;;;;;5035373;28;20082;-70
2023/04/01 13:23:22;;;;;;;18.17;7.88;;;;;;;;;;5029639;28;20111;-70
2023/04/01 13:25:48;;;;;;;19.92;7.60;;;;;;;;;;5039987;28;20421;-70
2023/04/01 13:28:14;;;;;;;16.20;7.20;;;;;;;;;;5039574;28;20412;-72
2023/04/01 13:30:40;;;;;;;22.10;8.68;;;;;;;;;;5036268;28;20021;-71
2023/04/01 13:33:07;;;;;;;15.43;7.68;;;;;;;;;;5039844;28;20151;-71
2023/04/01 13:35:33;;;;;;;13.43;7.38;;;;;;;;;;5038715;28;20867;-73
2023/04/01 13:38:09;;;;;;;15.30;6.90;;;;;;;;;;5040647;28;20484;-70
2023/04/01 13:40:36;;;;;;;20.65;6.97;;;;;;;;;;5037155;28;20033;-80
2023/04/01 13:43:05;;;;;;;11.68;6.65;;;;;;;;;;5038111;28;20114;-71
2023/04/01 13:45:43;;;;;;;10.20;5.85;;;;;;;;;;5035250;28;20033;-71
2023/04/01 13:48:29;;;;;;;12.82;6.75;;;;;;;;;;5036265;28;20025;-72
2023/04/01 13:50:55;;;;;;;14.23;6.53;;;;;;;;;;5029738;28;20393;-74
2023/04/01 13:53:40;;;;;;;9.10;5.78;;;;;;;;;;5039556;28;20029;-73
2023/04/01 13:56:25;;;;;;;13.38;5.78;;;;;;;;;;5039988;28;20103;-74
2023/04/01 13:58:51;;;;;;;10.02;5.78;;;;;;;;;;5039685;28;20126;-77
2023/04/01 14:01:33;;;;;;;13.40;5.47;;;;;;;;;;5039878;28;20108;-72
2023/04/01 14:04:05;;;;;;;18.20;5.33;;;;;;;;;;5038756;28;20036;-74
2023/04/01 14:06:31;;;;;;;13.38;5.40;;;;;;;;;;5036418;28;20312;-78
2023/04/01 14:09:16;;;;;;;9.55;5.00;;;;;;;;;;5032266;28;20029;-74
2023/04/01 14:12:09;;;;;;;16.30;5.78;;;;;;;;;;5037307;28;20036;-77
2023/04/01 14:14:53;;;;;;;13.10;5.32;;;;;;;;;;5010580;28;20091;-74
2023/04/01 14:17:22;;;;;;;10.85;5.07;;;;;;;;;;5038892;28;20063;-74
2023/04/01 14:20:15;;;;;;;10.40;5.90;;;;;;;;;;5039739;28;20029;-75
2023/04/01 14:22:41;;;;;;;26.20;5.85;;;;;;;;;;5035498;28;20091;-76
2023/04/01 14:25:26;;;;;;;11.48;5.40;;;;;;;;;;5038794;28;20037;-76
2023/04/01 14:28:00;;;;;;;15.25;5.75;;;;;;;;;;5036920;28;20032;-75
2023/04/01 14:30:26;;;;;;;12.98;5.63;;;;;;;;;;5038595;28;20029;-75
2023/04/01 14:32:55;;;;;;;8.93;4.63;;;;;;;;;;5038518;28;20036;-76
2023/04/01 14:35:24;;;;;;;8.68;5.03;;;;;;;;;;5033784;28;20028;-75
2023/04/01 14:38:03;;;;;;;9.95;4.78;;;;;;;;;;5040466;28;20036;-74
2023/04/01 14:40:38;;;;;;;13.55;5.25;;;;;;;;;;5036871;28;20087;-76
2023/04/01 14:43:16;;;;;;;8.13;4.10;;;;;;;;;;5039937;28;20067;-76
2023/04/01 14:45:45;;;;;;;6.72;4.10;;;;;;;;;;5037463;28;20039;-74
2023/04/01 14:48:15;;;;;;;7.55;4.53;;;;;;;;;;5037761;28;20048;-74
2023/04/01 14:50:51;;;;;;;15.32;4.95;;;;;;;;;;5041007;28;20036;-74
2023/04/01 14:53:17;;;;;;;10.75;4.95;;;;;;;;;;5039559;28;20033;-74
2023/04/01 14:55:43;;;;;;;11.23;4.65;;;;;;;;;;5039487;28;20516;-75
2023/04/01 14:58:17;;;;;;;9.82;4.35;;;;;;;;;;5040377;28;20041;-74
2023/04/01 15:00:55;;;;;;;9.13;4.22;;;;;;;;;;5039976;28;20025;-74
2023/04/01 15:03:21;;;;;;;10.20;4.25;;;;;;;;;;5035449;28;20060;-75
2023/04/01 15:05:57;;;;;;;6.82;4.05;;;;;;;;;;5040067;28;20039;-75
2023/04/01 15:08:25;;;;;;;14.18;4.03;;;;;;;;;;5040970;28;20052;-75